Yellowstone National Park, Wyoming
Current Conditions -  °F | °C
As of 2:35 PM on Saturday 25 Oct 2014 (Local Time) from KWYS Reporting Station
Clear Clear  
Wind Chill: 18°   Ceiling: Unl
Heat Index: 18°   Visibility: 10mi
Dew Point: -4°   Wind: 24mph
Humidity: 22%   Direction: 220°SW
Pressure: 30.01"   Gusts: 39mph
Location:  44.5747°N, 110.518°W
Report Text: KWYS 252035Z AUTO 22021G34KT 10SM CLR 18/M04 A3001 RMK AO2
Loading
Personal Weather Stations






























Interactive Weather Map
Tropical Storm Tracking
New forecast layout! Learn more

10-Day Weather Forecast

Advertisements
Track Severe Weather on mobile